sensor_id;sensor_type;location;lat;lon;timestamp;P1;P2;P0
53658;PMS5003;41524;35.624;139.698;2022-08-18T00:00:15;12.00;12.00;
53658;PMS5003;41524;35.624;139.698;2022-08-18T00:05:09;20.00;20.00;
53658;PMS5003;41524;35.624;139.698;2022-08-18T00:10:13;18.00;16.00;
53658;PMS5003;41524;35.624;139.698;2022-08-18T00:15:10;15.00;13.00;
53658;PMS5003;41524;35.624;139.698;2022-08-18T00:20:10;14.00;14.00;
53658;PMS5003;41524;35.624;139.698;2022-08-18T00:25:09;13.00;13.00;
53658;PMS5003;41524;35.624;139.698;2022-08-18T00:30:10;14.00;13.00;
53658;PMS5003;41524;35.624;139.698;2022-08-18T00:35:16;15.00;13.00;
53658;PMS5003;41524;35.624;139.698;2022-08-18T00:40:15;10.00;7.00;
53658;PMS5003;41524;35.624;139.698;2022-08-18T00:45:15;7.00;5.00;
53658;PMS5003;41524;35.624;139.698;2022-08-18T00:50:12;4.00;4.00;
53658;PMS5003;41524;35.624;139.698;2022-08-18T00:55:08;3.00;3.00;
53658;PMS5003;41524;35.624;139.698;2022-08-18T01:00:09;2.00;2.00;
53658;PMS5003;41524;35.624;139.698;2022-08-18T01:05:09;2.00;2.00;
53658;PMS5003;41524;35.624;139.698;2022-08-18T01:10:20;3.00;3.00;
53658;PMS5003;41524;35.624;139.698;2022-08-18T01:15:09;2.00;2.00;
53658;PMS5003;41524;35.624;139.698;2022-08-18T01:20:09;4.00;4.00;
53658;PMS5003;41524;35.624;139.698;2022-08-18T01:25:08;3.00;3.00;
53658;PMS5003;41524;35.624;139.698;2022-08-18T01:30:10;4.00;3.00;
53658;PMS5003;41524;35.624;139.698;2022-08-18T01:35:08;3.00;3.00;
53658;PMS5003;41524;35.624;139.698;2022-08-18T01:40:14;4.00;3.00;
53658;PMS5003;41524;35.624;139.698;2022-08-18T01:45:09;4.00;2.00;
53658;PMS5003;41524;35.624;139.698;2022-08-18T01:50:08;5.00;3.00;
53658;PMS5003;41524;35.624;139.698;2022-08-18T01:55:10;8.00;5.00;
53658;PMS5003;41524;35.624;139.698;2022-08-18T02:00:15;5.00;5.00;
53658;PMS5003;41524;35.624;139.698;2022-08-18T02:05:28;2.00;2.00;
53658;PMS5003;41524;35.624;139.698;2022-08-18T02:10:09;6.00;5.00;
53658;PMS5003;41524;35.624;139.698;2022-08-18T02:15:11;3.00;1.00;
53658;PMS5003;41524;35.624;139.698;2022-08-18T02:20:10;9.00;7.00;
53658;PMS5003;41524;35.624;139.698;2022-08-18T02:25:09;3.00;3.00;
53658;PMS5003;41524;35.624;139.698;2022-08-18T02:30:15;1.00;0.00;
53658;PMS5003;41524;35.624;139.698;2022-08-18T02:35:09;3.00;2.00;
53658;PMS5003;41524;35.624;139.698;2022-08-18T02:40:09;4.00;2.00;
53658;PMS5003;41524;35.624;139.698;2022-08-18T02:45:10;2.00;1.00;
53658;PMS5003;41524;35.624;139.698;2022-08-18T02:50:09;3.00;2.00;
53658;PMS5003;41524;35.624;139.698;2022-08-18T02:55:09;1.00;1.00;
53658;PMS5003;41524;35.624;139.698;2022-08-18T03:00:10;3.00;2.00;
53658;PMS5003;41524;35.624;139.698;2022-08-18T03:05:10;4.00;2.00;
53658;PMS5003;41524;35.624;139.698;2022-08-18T03:10:10;2.00;2.00;
53658;PMS5003;41524;35.624;139.698;2022-08-18T03:15:09;3.00;2.00;
53658;PMS5003;41524;35.624;139.698;2022-08-18T03:20:09;2.00;1.00;
53658;PMS5003;41524;35.624;139.698;2022-08-18T03:25:09;0.00;0.00;
53658;PMS5003;41524;35.624;139.698;2022-08-18T03:30:17;1.00;1.00;
53658;PMS5003;41524;35.624;139.698;2022-08-18T03:35:10;4.00;2.00;
53658;PMS5003;41524;35.624;139.698;2022-08-18T03:40:09;3.00;3.00;
53658;PMS5003;41524;35.624;139.698;2022-08-18T03:45:08;3.00;3.00;
53658;PMS5003;41524;35.624;139.698;2022-08-18T03:50:09;2.00;2.00;
53658;PMS5003;41524;35.624;139.698;2022-08-18T03:55:09;4.00;4.00;
53658;PMS5003;41524;35.624;139.698;2022-08-18T04:00:10;4.00;4.00;
53658;PMS5003;41524;35.624;139.698;2022-08-18T04:05:15;3.00;3.00;
53658;PMS5003;41524;35.624;139.698;2022-08-18T04:10:09;9.00;4.00;
53658;PMS5003;41524;35.624;139.698;2022-08-18T04:15:10;8.00;5.00;
53658;PMS5003;41524;35.624;139.698;2022-08-18T04:20:09;2.00;2.00;
53658;PMS5003;41524;35.624;139.698;2022-08-18T04:25:09;3.00;3.00;
53658;PMS5003;41524;35.624;139.698;2022-08-18T04:30:12;4.00;2.00;
53658;PMS5003;41524;35.624;139.698;2022-08-18T04:35:09;5.00;4.00;
53658;PMS5003;41524;35.624;139.698;2022-08-18T04:40:10;3.00;3.00;
53658;PMS5003;41524;35.624;139.698;2022-08-18T04:45:09;6.00;5.00;
53658;PMS5003;41524;35.624;139.698;2022-08-18T04:50:09;5.00;5.00;
53658;PMS5003;41524;35.624;139.698;2022-08-18T04:55:14;5.00;4.00;
53658;PMS5003;41524;35.624;139.698;2022-08-18T05:00:15;6.00;4.00;
53658;PMS5003;41524;35.624;139.698;2022-08-18T05:05:09;5.00;5.00;
53658;PMS5003;41524;35.624;139.698;2022-08-18T05:10:09;5.00;5.00;
53658;PMS5003;41524;35.624;139.698;2022-08-18T05:15:10;7.00;3.00;
53658;PMS5003;41524;35.624;139.698;2022-08-18T05:20:10;2.00;2.00;
53658;PMS5003;41524;35.624;139.698;2022-08-18T05:25:10;7.00;7.00;
53658;PMS5003;41524;35.624;139.698;2022-08-18T05:30:18;5.00;5.00;
53658;PMS5003;41524;35.624;139.698;2022-08-18T05:35:20;6.00;4.00;
53658;PMS5003;41524;35.624;139.698;2022-08-18T05:40:09;7.00;6.00;
53658;PMS5003;41524;35.624;139.698;2022-08-18T05:45:12;8.00;7.00;
53658;PMS5003;41524;35.624;139.698;2022-08-18T05:50:10;6.00;6.00;
53658;PMS5003;41524;35.624;139.698;2022-08-18T05:55:15;6.00;5.00;
53658;PMS5003;41524;35.624;139.698;2022-08-18T06:00:09;5.00;5.00;
53658;PMS5003;41524;35.624;139.698;2022-08-18T06:05:10;7.00;6.00;
53658;PMS5003;41524;35.624;139.698;2022-08-18T06:10:10;6.00;6.00;
53658;PMS5003;41524;35.624;139.698;2022-08-18T06:15:11;6.00;5.00;
53658;PMS5003;41524;35.624;139.698;2022-08-18T06:20:11;9.00;9.00;
53658;PMS5003;41524;35.624;139.698;2022-08-18T06:25:11;8.00;6.00;
53658;PMS5003;41524;35.624;139.698;2022-08-18T06:30:14;6.00;6.00;
53658;PMS5003;41524;35.624;139.698;2022-08-18T06:35:12;6.00;6.00;
53658;PMS5003;41524;35.624;139.698;2022-08-18T06:40:09;9.00;9.00;
53658;PMS5003;41524;35.624;139.698;2022-08-18T06:45:10;7.00;6.00;
53658;PMS5003;41524;35.624;139.698;2022-08-18T06:50:16;6.00;5.00;
53658;PMS5003;41524;35.624;139.698;2022-08-18T06:55:14;8.00;6.00;
53658;PMS5003;41524;35.624;139.698;2022-08-18T07:00:19;5.00;5.00;
53658;PMS5003;41524;35.624;139.698;2022-08-18T07:05:17;9.00;8.00;
53658;PMS5003;41524;35.624;139.698;2022-08-18T07:10:28;6.00;5.00;
53658;PMS5003;41524;35.624;139.698;2022-08-18T07:15:11;5.00;5.00;
53658;PMS5003;41524;35.624;139.698;2022-08-18T07:20:09;7.00;7.00;
53658;PMS5003;41524;35.624;139.698;2022-08-18T07:25:18;8.00;7.00;
53658;PMS5003;41524;35.624;139.698;2022-08-18T07:30:24;5.00;5.00;
53658;PMS5003;41524;35.624;139.698;2022-08-18T07:35:09;7.00;6.00;
53658;PMS5003;41524;35.624;139.698;2022-08-18T07:40:17;7.00;7.00;
53658;PMS5003;41524;35.624;139.698;2022-08-18T07:45:10;9.00;6.00;
53658;PMS5003;41524;35.624;139.698;2022-08-18T07:50:09;6.00;5.00;
53658;PMS5003;41524;35.624;139.698;2022-08-18T07:55:12;7.00;6.00;
53658;PMS5003;41524;35.624;139.698;2022-08-18T08:00:18;7.00;7.00;
53658;PMS5003;41524;35.624;139.698;2022-08-18T08:05:16;7.00;6.00;
53658;PMS5003;41524;35.624;139.698;2022-08-18T08:10:18;5.00;5.00;
53658;PMS5003;41524;35.624;139.698;2022-08-18T08:15:13;5.00;5.00;
53658;PMS5003;41524;35.624;139.698;2022-08-18T08:20:17;7.00;5.00;
53658;PMS5003;41524;35.624;139.698;2022-08-18T08:25:11;6.00;6.00;
53658;PMS5003;41524;35.624;139.698;2022-08-18T08:30:10;5.00;5.00;
53658;PMS5003;41524;35.624;139.698;2022-08-18T08:35:10;8.00;8.00;
53658;PMS5003;41524;35.624;139.698;2022-08-18T08:40:12;8.00;7.00;
53658;PMS5003;41524;35.624;139.698;2022-08-18T08:45:09;8.00;6.00;
53658;PMS5003;41524;35.624;139.698;2022-08-18T08:50:14;10.00;10.00;
53658;PMS5003;41524;35.624;139.698;2022-08-18T08:55:12;13.00;13.00;
53658;PMS5003;41524;35.624;139.698;2022-08-18T09:00:09;12.00;12.00;
53658;PMS5003;41524;35.624;139.698;2022-08-18T09:05:20;13.00;13.00;
53658;PMS5003;41524;35.624;139.698;2022-08-18T09:10:34;19.00;16.00;
53658;PMS5003;41524;35.624;139.698;2022-08-18T09:15:21;12.00;12.00;
53658;PMS5003;41524;35.624;139.698;2022-08-18T09:20:12;11.00;11.00;
53658;PMS5003;41524;35.624;139.698;2022-08-18T09:25:10;8.00;8.00;
53658;PMS5003;41524;35.624;139.698;2022-08-18T09:30:36;10.00;10.00;
53658;PMS5003;41524;35.624;139.698;2022-08-18T09:35:12;12.00;8.00;
53658;PMS5003;41524;35.624;139.698;2022-08-18T09:40:10;8.00;7.00;
53658;PMS5003;41524;35.624;139.698;2022-08-18T09:45:10;11.00;11.00;
53658;PMS5003;41524;35.624;139.698;2022-08-18T09:50:51;8.00;7.00;
53658;PMS5003;41524;35.624;139.698;2022-08-18T09:55:52;11.00;10.00;
53658;PMS5003;41524;35.624;139.698;2022-08-18T10:00:17;10.00;10.00;
53658;PMS5003;41524;35.624;139.698;2022-08-18T10:05:25;9.00;9.00;
53658;PMS5003;41524;35.624;139.698;2022-08-18T10:10:17;9.00;9.00;
53658;PMS5003;41524;35.624;139.698;2022-08-18T10:15:25;10.00;6.00;
53658;PMS5003;41524;35.624;139.698;2022-08-18T10:20:13;6.00;5.00;
53658;PMS5003;41524;35.624;139.698;2022-08-18T10:25:11;6.00;6.00;
53658;PMS5003;41524;35.624;139.698;2022-08-18T10:30:43;7.00;7.00;
53658;PMS5003;41524;35.624;139.698;2022-08-18T10:36:10;5.00;5.00;
53658;PMS5003;41524;35.624;139.698;2022-08-18T10:40:16;3.00;3.00;
53658;PMS5003;41524;35.624;139.698;2022-08-18T10:45:25;2.00;2.00;
53658;PMS5003;41524;35.624;139.698;2022-08-18T10:50:18;3.00;3.00;
53658;PMS5003;41524;35.624;139.698;2022-08-18T10:55:13;3.00;3.00;
53658;PMS5003;41524;35.624;139.698;2022-08-18T11:00:11;3.00;3.00;
53658;PMS5003;41524;35.624;139.698;2022-08-18T11:05:16;2.00;2.00;
53658;PMS5003;41524;35.624;139.698;2022-08-18T11:10:16;3.00;2.00;
53658;PMS5003;41524;35.624;139.698;2022-08-18T11:15:15;3.00;3.00;
53658;PMS5003;41524;35.624;139.698;2022-08-18T11:25:17;1.00;1.00;
53658;PMS5003;41524;35.624;139.698;2022-08-18T11:30:09;3.00;3.00;
53658;PMS5003;41524;35.624;139.698;2022-08-18T11:35:11;3.00;3.00;
53658;PMS5003;41524;35.624;139.698;2022-08-18T11:40:22;1.00;1.00;
53658;PMS5003;41524;35.624;139.698;2022-08-18T11:45:12;0.00;0.00;
53658;PMS5003;41524;35.624;139.698;2022-08-18T11:50:10;4.00;4.00;
53658;PMS5003;41524;35.624;139.698;2022-08-18T11:55:16;1.00;1.00;
53658;PMS5003;41524;35.624;139.698;2022-08-18T12:00:39;1.00;1.00;
53658;PMS5003;41524;35.624;139.698;2022-08-18T12:05:08;1.00;1.00;
53658;PMS5003;41524;35.624;139.698;2022-08-18T12:10:13;2.00;1.00;
53658;PMS5003;41524;35.624;139.698;2022-08-18T12:15:22;1.00;1.00;
53658;PMS5003;41524;35.624;139.698;2022-08-18T12:20:22;1.00;1.00;
53658;PMS5003;41524;35.624;139.698;2022-08-18T12:30:14;2.00;1.00;
53658;PMS5003;41524;35.624;139.698;2022-08-18T12:35:10;2.00;2.00;
53658;PMS5003;41524;35.624;139.698;2022-08-18T12:40:10;0.00;0.00;
53658;PMS5003;41524;35.624;139.698;2022-08-18T12:45:14;1.00;1.00;
53658;PMS5003;41524;35.624;139.698;2022-08-18T12:50:09;0.00;0.00;
53658;PMS5003;41524;35.624;139.698;2022-08-18T12:55:13;1.00;1.00;
53658;PMS5003;41524;35.624;139.698;2022-08-18T13:00:12;2.00;1.00;
53658;PMS5003;41524;35.624;139.698;2022-08-18T13:05:09;0.00;0.00;
53658;PMS5003;41524;35.624;139.698;2022-08-18T13:10:09;1.00;1.00;
53658;PMS5003;41524;35.624;139.698;2022-08-18T13:15:09;1.00;1.00;
53658;PMS5003;41524;35.624;139.698;2022-08-18T13:20:10;0.00;0.00;
53658;PMS5003;41524;35.624;139.698;2022-08-18T13:25:10;1.00;1.00;
53658;PMS5003;41524;35.624;139.698;2022-08-18T13:30:14;0.00;0.00;
53658;PMS5003;41524;35.624;139.698;2022-08-18T13:35:11;1.00;1.00;
53658;PMS5003;41524;35.624;139.698;2022-08-18T13:40:09;0.00;0.00;
53658;PMS5003;41524;35.624;139.698;2022-08-18T13:45:09;0.00;0.00;
53658;PMS5003;41524;35.624;139.698;2022-08-18T13:50:19;2.00;2.00;
53658;PMS5003;41524;35.624;139.698;2022-08-18T13:55:15;0.00;0.00;
53658;PMS5003;41524;35.624;139.698;2022-08-18T14:00:15;0.00;0.00;
53658;PMS5003;41524;35.624;139.698;2022-08-18T14:05:14;0.00;0.00;
53658;PMS5003;41524;35.624;139.698;2022-08-18T14:10:10;0.00;0.00;
53658;PMS5003;41524;35.624;139.698;2022-08-18T14:15:12;0.00;0.00;
53658;PMS5003;41524;35.624;139.698;2022-08-18T14:20:10;0.00;0.00;
53658;PMS5003;41524;35.624;139.698;2022-08-18T14:25:14;0.00;0.00;
53658;PMS5003;41524;35.624;139.698;2022-08-18T14:30:14;1.00;1.00;
53658;PMS5003;41524;35.624;139.698;2022-08-18T14:35:10;1.00;1.00;
53658;PMS5003;41524;35.624;139.698;2022-08-18T14:40:19;0.00;0.00;
53658;PMS5003;41524;35.624;139.698;2022-08-18T14:45:12;0.00;0.00;
53658;PMS5003;41524;35.624;139.698;2022-08-18T14:50:15;1.00;1.00;
53658;PMS5003;41524;35.624;139.698;2022-08-18T14:55:09;1.00;0.00;
53658;PMS5003;41524;35.624;139.698;2022-08-18T15:00:18;2.00;2.00;
53658;PMS5003;41524;35.624;139.698;2022-08-18T15:05:14;1.00;1.00;
53658;PMS5003;41524;35.624;139.698;2022-08-18T15:10:10;0.00;0.00;
53658;PMS5003;41524;35.624;139.698;2022-08-18T15:15:10;2.00;2.00;
53658;PMS5003;41524;35.624;139.698;2022-08-18T15:20:13;1.00;1.00;
53658;PMS5003;41524;35.624;139.698;2022-08-18T15:25:11;1.00;1.00;
53658;PMS5003;41524;35.624;139.698;2022-08-18T15:30:23;1.00;1.00;
53658;PMS5003;41524;35.624;139.698;2022-08-18T15:35:10;0.00;0.00;
53658;PMS5003;41524;35.624;139.698;2022-08-18T15:40:14;2.00;2.00;
53658;PMS5003;41524;35.624;139.698;2022-08-18T15:45:11;1.00;1.00;
53658;PMS5003;41524;35.624;139.698;2022-08-18T15:50:09;1.00;1.00;
53658;PMS5003;41524;35.624;139.698;2022-08-18T15:55:10;1.00;1.00;
53658;PMS5003;41524;35.624;139.698;2022-08-18T16:00:09;1.00;1.00;
53658;PMS5003;41524;35.624;139.698;2022-08-18T16:05:09;1.00;1.00;
53658;PMS5003;41524;35.624;139.698;2022-08-18T16:10:10;2.00;2.00;
53658;PMS5003;41524;35.624;139.698;2022-08-18T16:15:10;1.00;1.00;
53658;PMS5003;41524;35.624;139.698;2022-08-18T16:20:11;3.00;3.00;
53658;PMS5003;41524;35.624;139.698;2022-08-18T16:25:10;1.00;1.00;
53658;PMS5003;41524;35.624;139.698;2022-08-18T16:30:09;2.00;2.00;
53658;PMS5003;41524;35.624;139.698;2022-08-18T16:35:09;2.00;2.00;
53658;PMS5003;41524;35.624;139.698;2022-08-18T16:40:09;2.00;2.00;
53658;PMS5003;41524;35.624;139.698;2022-08-18T16:45:09;1.00;1.00;
53658;PMS5003;41524;35.624;139.698;2022-08-18T16:50:13;0.00;0.00;
53658;PMS5003;41524;35.624;139.698;2022-08-18T16:55:10;1.00;1.00;
53658;PMS5003;41524;35.624;139.698;2022-08-18T17:00:09;2.00;2.00;
53658;PMS5003;41524;35.624;139.698;2022-08-18T17:05:10;1.00;1.00;
53658;PMS5003;41524;35.624;139.698;2022-08-18T17:10:10;1.00;1.00;
53658;PMS5003;41524;35.624;139.698;2022-08-18T17:15:09;1.00;1.00;
53658;PMS5003;41524;35.624;139.698;2022-08-18T17:20:09;0.00;0.00;
53658;PMS5003;41524;35.624;139.698;2022-08-18T17:25:09;2.00;2.00;
53658;PMS5003;41524;35.624;139.698;2022-08-18T17:30:10;3.00;2.00;
53658;PMS5003;41524;35.624;139.698;2022-08-18T17:35:11;2.00;2.00;
53658;PMS5003;41524;35.624;139.698;2022-08-18T17:40:12;1.00;1.00;
53658;PMS5003;41524;35.624;139.698;2022-08-18T17:45:13;2.00;2.00;
53658;PMS5003;41524;35.624;139.698;2022-08-18T17:50:18;0.00;0.00;
53658;PMS5003;41524;35.624;139.698;2022-08-18T17:55:12;1.00;1.00;
53658;PMS5003;41524;35.624;139.698;2022-08-18T18:00:10;3.00;3.00;
53658;PMS5003;41524;35.624;139.698;2022-08-18T18:05:10;1.00;1.00;
53658;PMS5003;41524;35.624;139.698;2022-08-18T18:10:10;1.00;1.00;
53658;PMS5003;41524;35.624;139.698;2022-08-18T18:15:11;2.00;2.00;
53658;PMS5003;41524;35.624;139.698;2022-08-18T18:20:12;3.00;2.00;
53658;PMS5003;41524;35.624;139.698;2022-08-18T18:25:10;2.00;2.00;
53658;PMS5003;41524;35.624;139.698;2022-08-18T18:30:20;3.00;2.00;
53658;PMS5003;41524;35.624;139.698;2022-08-18T18:35:11;1.00;1.00;
53658;PMS5003;41524;35.624;139.698;2022-08-18T18:40:17;1.00;1.00;
53658;PMS5003;41524;35.624;139.698;2022-08-18T18:45:19;0.00;0.00;
53658;PMS5003;41524;35.624;139.698;2022-08-18T18:50:10;2.00;2.00;
53658;PMS5003;41524;35.624;139.698;2022-08-18T18:55:12;1.00;1.00;
53658;PMS5003;41524;35.624;139.698;2022-08-18T19:00:16;2.00;2.00;
53658;PMS5003;41524;35.624;139.698;2022-08-18T19:05:13;4.00;3.00;
53658;PMS5003;41524;35.624;139.698;2022-08-18T19:10:09;2.00;1.00;
53658;PMS5003;41524;35.624;139.698;2022-08-18T19:15:11;3.00;1.00;
53658;PMS5003;41524;35.624;139.698;2022-08-18T19:20:10;3.00;3.00;
53658;PMS5003;41524;35.624;139.698;2022-08-18T19:25:11;2.00;2.00;
53658;PMS5003;41524;35.624;139.698;2022-08-18T19:30:11;2.00;2.00;
53658;PMS5003;41524;35.624;139.698;2022-08-18T19:35:12;3.00;2.00;
53658;PMS5003;41524;35.624;139.698;2022-08-18T19:40:11;3.00;3.00;
53658;PMS5003;41524;35.624;139.698;2022-08-18T19:45:09;4.00;1.00;
53658;PMS5003;41524;35.624;139.698;2022-08-18T19:50:12;3.00;3.00;
53658;PMS5003;41524;35.624;139.698;2022-08-18T19:55:13;4.00;3.00;
53658;PMS5003;41524;35.624;139.698;2022-08-18T20:00:16;4.00;3.00;
53658;PMS5003;41524;35.624;139.698;2022-08-18T20:05:16;1.00;1.00;
53658;PMS5003;41524;35.624;139.698;2022-08-18T20:10:18;3.00;2.00;
53658;PMS5003;41524;35.624;139.698;2022-08-18T20:15:12;3.00;3.00;
53658;PMS5003;41524;35.624;139.698;2022-08-18T20:20:12;3.00;2.00;
53658;PMS5003;41524;35.624;139.698;2022-08-18T20:25:42;1.00;1.00;
53658;PMS5003;41524;35.624;139.698;2022-08-18T20:35:17;3.00;3.00;
53658;PMS5003;41524;35.624;139.698;2022-08-18T20:40:09;3.00;3.00;
53658;PMS5003;41524;35.624;139.698;2022-08-18T20:45:10;4.00;4.00;
53658;PMS5003;41524;35.624;139.698;2022-08-18T20:50:43;3.00;3.00;
53658;PMS5003;41524;35.624;139.698;2022-08-18T20:55:12;4.00;3.00;
53658;PMS5003;41524;35.624;139.698;2022-08-18T21:00:19;4.00;3.00;
53658;PMS5003;41524;35.624;139.698;2022-08-18T21:05:09;4.00;3.00;
53658;PMS5003;41524;35.624;139.698;2022-08-18T21:10:14;7.00;6.00;
53658;PMS5003;41524;35.624;139.698;2022-08-18T21:15:09;2.00;2.00;
53658;PMS5003;41524;35.624;139.698;2022-08-18T21:20:10;1.00;1.00;
53658;PMS5003;41524;35.624;139.698;2022-08-18T21:25:11;3.00;3.00;
53658;PMS5003;41524;35.624;139.698;2022-08-18T21:30:14;4.00;3.00;
53658;PMS5003;41524;35.624;139.698;2022-08-18T21:35:18;3.00;1.00;
53658;PMS5003;41524;35.624;139.698;2022-08-18T21:40:13;3.00;2.00;
53658;PMS5003;41524;35.624;139.698;2022-08-18T21:45:12;3.00;2.00;
53658;PMS5003;41524;35.624;139.698;2022-08-18T21:50:10;4.00;3.00;
53658;PMS5003;41524;35.624;139.698;2022-08-18T21:55:12;2.00;2.00;
53658;PMS5003;41524;35.624;139.698;2022-08-18T22:00:13;2.00;2.00;
53658;PMS5003;41524;35.624;139.698;2022-08-18T22:05:10;3.00;2.00;
53658;PMS5003;41524;35.624;139.698;2022-08-18T22:10:17;2.00;2.00;
53658;PMS5003;41524;35.624;139.698;2022-08-18T22:15:11;3.00;3.00;
53658;PMS5003;41524;35.624;139.698;2022-08-18T22:20:49;8.00;8.00;
53658;PMS5003;41524;35.624;139.698;2022-08-18T22:25:18;4.00;4.00;
53658;PMS5003;41524;35.624;139.698;2022-08-18T22:30:16;2.00;2.00;
53658;PMS5003;41524;35.624;139.698;2022-08-18T22:35:10;2.00;2.00;
53658;PMS5003;41524;35.624;139.698;2022-08-18T22:40:10;2.00;2.00;
53658;PMS5003;41524;35.624;139.698;2022-08-18T22:45:11;4.00;4.00;
53658;PMS5003;41524;35.624;139.698;2022-08-18T22:50:09;3.00;3.00;
53658;PMS5003;41524;35.624;139.698;2022-08-18T22:55:10;3.00;3.00;
53658;PMS5003;41524;35.624;139.698;2022-08-18T23:00:10;2.00;2.00;
53658;PMS5003;41524;35.624;139.698;2022-08-18T23:05:11;2.00;2.00;
53658;PMS5003;41524;35.624;139.698;2022-08-18T23:10:09;4.00;4.00;
53658;PMS5003;41524;35.624;139.698;2022-08-18T23:15:09;2.00;2.00;
53658;PMS5003;41524;35.624;139.698;2022-08-18T23:20:15;2.00;2.00;
53658;PMS5003;41524;35.624;139.698;2022-08-18T23:25:14;2.00;2.00;
53658;PMS5003;41524;35.624;139.698;2022-08-18T23:30:19;4.00;4.00;
53658;PMS5003;41524;35.624;139.698;2022-08-18T23:35:08;4.00;3.00;
53658;PMS5003;41524;35.624;139.698;2022-08-18T23:40:13;3.00;3.00;
53658;PMS5003;41524;35.624;139.698;2022-08-18T23:45:21;2.00;2.00;
53658;PMS5003;41524;35.624;139.698;2022-08-18T23:50:13;2.00;2.00;
53658;PMS5003;41524;35.624;139.698;2022-08-18T23:55:12;2.00;2.00;
